sensor_id;sensor_type;location;lat;lon;timestamp;temperature;humidity
15930;DHT22;8064;51.142;4.780;2022-11-18T00:02:06;10.70;99.90
15930;DHT22;8064;51.142;4.780;2022-11-18T00:04:31;10.70;99.90
15930;DHT22;8064;51.142;4.780;2022-11-18T00:06:57;10.70;99.90
15930;DHT22;8064;51.142;4.780;2022-11-18T00:09:23;10.70;99.90
15930;DHT22;8064;51.142;4.780;2022-11-18T00:11:49;10.70;99.90
15930;DHT22;8064;51.142;4.780;2022-11-18T00:14:33;10.70;99.90
15930;DHT22;8064;51.142;4.780;2022-11-18T00:17:01;10.70;99.90
15930;DHT22;8064;51.142;4.780;2022-11-18T00:19:37;10.70;99.90
15930;DHT22;8064;51.142;4.780;2022-11-18T00:22:05;10.70;99.90
15930;DHT22;8064;51.142;4.780;2022-11-18T00:24:31;10.70;99.90
15930;DHT22;8064;51.142;4.780;2022-11-18T00:26:57;10.70;99.90
15930;DHT22;8064;51.142;4.780;2022-11-18T00:29:23;10.70;99.90
15930;DHT22;8064;51.142;4.780;2022-11-18T00:31:53;10.70;99.90
15930;DHT22;8064;51.142;4.780;2022-11-18T00:34:19;10.70;99.90
15930;DHT22;8064;51.142;4.780;2022-11-18T00:36:46;10.70;99.90
15930;DHT22;8064;51.142;4.780;2022-11-18T00:39:14;10.70;99.90
15930;DHT22;8064;51.142;4.780;2022-11-18T00:41:40;10.70;99.90
15930;DHT22;8064;51.142;4.780;2022-11-18T00:44:24;10.70;99.90
15930;DHT22;8064;51.142;4.780;2022-11-18T00:46:50;10.70;99.90
15930;DHT22;8064;51.142;4.780;2022-11-18T00:49:16;10.60;99.90
15930;DHT22;8064;51.142;4.780;2022-11-18T00:51:41;10.70;99.90
15930;DHT22;8064;51.142;4.780;2022-11-18T00:54:07;10.70;99.90
15930;DHT22;8064;51.142;4.780;2022-11-18T00:56:33;10.70;99.90
15930;DHT22;8064;51.142;4.780;2022-11-18T00:58:58;10.70;99.90
15930;DHT22;8064;51.142;4.780;2022-11-18T01:01:24;10.70;99.90
15930;DHT22;8064;51.142;4.780;2022-11-18T01:03:50;10.70;99.90
15930;DHT22;8064;51.142;4.780;2022-11-18T01:06:16;10.70;99.90
15930;DHT22;8064;51.142;4.780;2022-11-18T01:08:42;10.70;99.90
15930;DHT22;8064;51.142;4.780;2022-11-18T01:11:08;10.70;99.90
15930;DHT22;8064;51.142;4.780;2022-11-18T01:13:53;10.70;99.90
15930;DHT22;8064;51.142;4.780;2022-11-18T01:16:23;10.70;99.90
15930;DHT22;8064;51.142;4.780;2022-11-18T01:18:50;10.70;99.90
15930;DHT22;8064;51.142;4.780;2022-11-18T01:21:16;10.70;99.90
15930;DHT22;8064;51.142;4.780;2022-11-18T01:23:43;10.70;99.90
15930;DHT22;8064;51.142;4.780;2022-11-18T01:26:11;10.70;99.90
15930;DHT22;8064;51.142;4.780;2022-11-18T01:28:37;10.70;99.90
15930;DHT22;8064;51.142;4.780;2022-11-18T01:31:12;10.70;99.90
15930;DHT22;8064;51.142;4.780;2022-11-18T01:33:38;10.70;99.90
15930;DHT22;8064;51.142;4.780;2022-11-18T01:36:12;10.70;99.90
15930;DHT22;8064;51.142;4.780;2022-11-18T01:38:38;10.70;99.90
15930;DHT22;8064;51.142;4.780;2022-11-18T01:41:04;10.60;99.90
15930;DHT22;8064;51.142;4.780;2022-11-18T01:43:56;10.70;99.90
15930;DHT22;8064;51.142;4.780;2022-11-18T01:46:24;10.60;99.90
15930;DHT22;8064;51.142;4.780;2022-11-18T01:49:00;10.60;99.90
15930;DHT22;8064;51.142;4.780;2022-11-18T01:51:36;10.60;99.90
15930;DHT22;8064;51.142;4.780;2022-11-18T01:54:09;10.60;99.90
15930;DHT22;8064;51.142;4.780;2022-11-18T01:56:41;10.60;99.90
15930;DHT22;8064;51.142;4.780;2022-11-18T01:59:11;10.60;99.90
15930;DHT22;8064;51.142;4.780;2022-11-18T02:01:37;10.60;99.90
15930;DHT22;8064;51.142;4.780;2022-11-18T02:04:04;10.60;99.90
15930;DHT22;8064;51.142;4.780;2022-11-18T02:06:31;10.60;99.90
15930;DHT22;8064;51.142;4.780;2022-11-18T02:08:57;10.60;99.90
15930;DHT22;8064;51.142;4.780;2022-11-18T02:11:23;10.60;99.90
15930;DHT22;8064;51.142;4.780;2022-11-18T02:14:09;10.60;99.90
15930;DHT22;8064;51.142;4.780;2022-11-18T02:30:06;10.50;99.90
15930;DHT22;8064;51.142;4.780;2022-11-18T02:32:52;10.40;99.90
15930;DHT22;8064;51.142;4.780;2022-11-18T02:35:28;10.40;99.90
15930;DHT22;8064;51.142;4.780;2022-11-18T02:38:01;10.40;99.90
15930;DHT22;8064;51.142;4.780;2022-11-18T02:40:43;10.40;99.90
15930;DHT22;8064;51.142;4.780;2022-11-18T02:43:16;10.40;99.90
15930;DHT22;8064;51.142;4.780;2022-11-18T02:45:48;10.40;99.90
15930;DHT22;8064;51.142;4.780;2022-11-18T02:48:17;10.30;99.90
15930;DHT22;8064;51.142;4.780;2022-11-18T02:50:45;10.30;99.90
15930;DHT22;8064;51.142;4.780;2022-11-18T02:53:15;10.30;99.90
15930;DHT22;8064;51.142;4.780;2022-11-18T02:55:43;10.20;99.90
15930;DHT22;8064;51.142;4.780;2022-11-18T02:58:10;10.20;99.90
15930;DHT22;8064;51.142;4.780;2022-11-18T03:00:36;10.20;99.90
15930;DHT22;8064;51.142;4.780;2022-11-18T03:03:23;10.10;99.90
15930;DHT22;8064;51.142;4.780;2022-11-18T03:08:28;10.10;99.90
15930;DHT22;8064;51.142;4.780;2022-11-18T03:11:08;10.00;99.90
15930;DHT22;8064;51.142;4.780;2022-11-18T03:13:47;10.00;99.90
15930;DHT22;8064;51.142;4.780;2022-11-18T03:16:22;10.00;99.90
15930;DHT22;8064;51.142;4.780;2022-11-18T03:19:16;9.90;99.90
15930;DHT22;8064;51.142;4.780;2022-11-18T03:21:50;9.90;99.90
15930;DHT22;8064;51.142;4.780;2022-11-18T03:24:28;9.80;99.90
15930;DHT22;8064;51.142;4.780;2022-11-18T03:27:03;9.80;99.90
15930;DHT22;8064;51.142;4.780;2022-11-18T03:29:37;9.80;99.90
15930;DHT22;8064;51.142;4.780;2022-11-18T03:32:18;9.80;99.90
15930;DHT22;8064;51.142;4.780;2022-11-18T03:34:51;9.80;99.90
15930;DHT22;8064;51.142;4.780;2022-11-18T03:37:20;9.80;99.90
15930;DHT22;8064;51.142;4.780;2022-11-18T03:39:50;9.70;99.90
15930;DHT22;8064;51.142;4.780;2022-11-18T03:42:43;9.80;99.90
15930;DHT22;8064;51.142;4.780;2022-11-18T03:45:18;9.70;99.90
15930;DHT22;8064;51.142;4.780;2022-11-18T03:50:52;9.70;99.90
15930;DHT22;8064;51.142;4.780;2022-11-18T03:53:21;9.60;99.90
15930;DHT22;8064;51.142;4.780;2022-11-18T03:55:53;9.60;99.90
15930;DHT22;8064;51.142;4.780;2022-11-18T03:58:28;9.60;99.90
15930;DHT22;8064;51.142;4.780;2022-11-18T04:01:10;9.60;99.90
15930;DHT22;8064;51.142;4.780;2022-11-18T04:03:37;9.60;99.90
15930;DHT22;8064;51.142;4.780;2022-11-18T04:06:11;9.50;99.90
15930;DHT22;8064;51.142;4.780;2022-11-18T04:08:42;9.60;99.90
15930;DHT22;8064;51.142;4.780;2022-11-18T04:11:12;9.50;99.90
15930;DHT22;8064;51.142;4.780;2022-11-18T04:14:00;9.50;99.90
15930;DHT22;8064;51.142;4.780;2022-11-18T04:16:26;9.40;99.90
15930;DHT22;8064;51.142;4.780;2022-11-18T04:18:51;9.40;99.90
15930;DHT22;8064;51.142;4.780;2022-11-18T04:21:17;9.40;99.90
15930;DHT22;8064;51.142;4.780;2022-11-18T04:23:43;9.40;99.90
15930;DHT22;8064;51.142;4.780;2022-11-18T04:26:09;9.40;99.90
15930;DHT22;8064;51.142;4.780;2022-11-18T04:28:36;9.30;99.90
15930;DHT22;8064;51.142;4.780;2022-11-18T04:31:02;9.30;99.90
15930;DHT22;8064;51.142;4.780;2022-11-18T04:33:27;9.30;99.90
15930;DHT22;8064;51.142;4.780;2022-11-18T04:35:53;9.20;99.90
15930;DHT22;8064;51.142;4.780;2022-11-18T04:38:19;9.20;99.90
15930;DHT22;8064;51.142;4.780;2022-11-18T04:40:45;9.20;99.90
15930;DHT22;8064;51.142;4.780;2022-11-18T04:43:11;9.20;99.90
15930;DHT22;8064;51.142;4.780;2022-11-18T04:45:37;9.10;99.90
15930;DHT22;8064;51.142;4.780;2022-11-18T04:48:02;9.10;99.90
15930;DHT22;8064;51.142;4.780;2022-11-18T04:50:28;9.10;99.90
15930;DHT22;8064;51.142;4.780;2022-11-18T04:52:54;9.10;99.90
15930;DHT22;8064;51.142;4.780;2022-11-18T04:55:19;9.10;99.90
15930;DHT22;8064;51.142;4.780;2022-11-18T04:57:45;9.10;99.90
15930;DHT22;8064;51.142;4.780;2022-11-18T05:00:11;9.10;99.90
15930;DHT22;8064;51.142;4.780;2022-11-18T05:02:37;9.10;99.90
15930;DHT22;8064;51.142;4.780;2022-11-18T05:05:03;9.10;99.90
15930;DHT22;8064;51.142;4.780;2022-11-18T05:07:28;9.10;99.90
15930;DHT22;8064;51.142;4.780;2022-11-18T05:09:54;9.10;99.90
15930;DHT22;8064;51.142;4.780;2022-11-18T05:12:20;9.00;99.90
15930;DHT22;8064;51.142;4.780;2022-11-18T05:15:04;9.00;99.90
15930;DHT22;8064;51.142;4.780;2022-11-18T05:17:33;9.00;99.90
15930;DHT22;8064;51.142;4.780;2022-11-18T05:19:58;9.00;99.90
15930;DHT22;8064;51.142;4.780;2022-11-18T05:22:24;9.00;99.90
15930;DHT22;8064;51.142;4.780;2022-11-18T05:24:50;9.00;99.90
15930;DHT22;8064;51.142;4.780;2022-11-18T05:27:16;8.90;99.90
15930;DHT22;8064;51.142;4.780;2022-11-18T05:29:42;8.90;99.90
15930;DHT22;8064;51.142;4.780;2022-11-18T05:32:07;9.00;99.90
15930;DHT22;8064;51.142;4.780;2022-11-18T05:34:33;8.90;99.90
15930;DHT22;8064;51.142;4.780;2022-11-18T05:36:59;8.90;99.90
15930;DHT22;8064;51.142;4.780;2022-11-18T05:39:25;8.90;99.90
15930;DHT22;8064;51.142;4.780;2022-11-18T05:41:51;8.90;99.90
15930;DHT22;8064;51.142;4.780;2022-11-18T05:44:35;8.90;99.90
15930;DHT22;8064;51.142;4.780;2022-11-18T05:47:00;8.80;99.90
15930;DHT22;8064;51.142;4.780;2022-11-18T05:49:26;8.80;99.90
15930;DHT22;8064;51.142;4.780;2022-11-18T05:51:52;8.80;99.90
15930;DHT22;8064;51.142;4.780;2022-11-18T05:54:18;8.80;99.90
15930;DHT22;8064;51.142;4.780;2022-11-18T05:56:45;8.80;99.90
15930;DHT22;8064;51.142;4.780;2022-11-18T05:59:12;8.80;99.90
15930;DHT22;8064;51.142;4.780;2022-11-18T06:01:54;8.80;99.90
15930;DHT22;8064;51.142;4.780;2022-11-18T06:04:36;8.80;99.90
15930;DHT22;8064;51.142;4.780;2022-11-18T06:07:08;8.80;99.90
15930;DHT22;8064;51.142;4.780;2022-11-18T06:09:39;8.80;99.90
15930;DHT22;8064;51.142;4.780;2022-11-18T06:12:06;8.80;99.90
15930;DHT22;8064;51.142;4.780;2022-11-18T06:14:40;8.80;99.90
15930;DHT22;8064;51.142;4.780;2022-11-18T06:17:13;8.80;99.90
15930;DHT22;8064;51.142;4.780;2022-11-18T06:19:40;8.70;99.90
15930;DHT22;8064;51.142;4.780;2022-11-18T06:22:06;8.70;99.90
15930;DHT22;8064;51.142;4.780;2022-11-18T06:24:33;8.70;99.90
15930;DHT22;8064;51.142;4.780;2022-11-18T06:26:59;8.80;99.90
15930;DHT22;8064;51.142;4.780;2022-11-18T06:29:25;8.70;99.90
15930;DHT22;8064;51.142;4.780;2022-11-18T06:31:52;8.70;99.90
15930;DHT22;8064;51.142;4.780;2022-11-18T06:34:17;8.70;99.90
15930;DHT22;8064;51.142;4.780;2022-11-18T06:36:43;8.70;99.90
15930;DHT22;8064;51.142;4.780;2022-11-18T06:39:09;8.70;99.90
15930;DHT22;8064;51.142;4.780;2022-11-18T06:41:34;8.70;99.90
15930;DHT22;8064;51.142;4.780;2022-11-18T06:44:00;8.80;99.90
15930;DHT22;8064;51.142;4.780;2022-11-18T06:46:26;8.80;99.90
15930;DHT22;8064;51.142;4.780;2022-11-18T06:49:10;8.80;99.90
15930;DHT22;8064;51.142;4.780;2022-11-18T06:51:37;8.70;99.90
15930;DHT22;8064;51.142;4.780;2022-11-18T06:54:03;8.70;99.90
15930;DHT22;8064;51.142;4.780;2022-11-18T06:56:29;8.80;99.90
15930;DHT22;8064;51.142;4.780;2022-11-18T06:58:57;8.70;99.90
15930;DHT22;8064;51.142;4.780;2022-11-18T07:01:25;8.70;99.90
15930;DHT22;8064;51.142;4.780;2022-11-18T07:03:51;8.70;99.90
15930;DHT22;8064;51.142;4.780;2022-11-18T07:06:22;8.70;99.90
15930;DHT22;8064;51.142;4.780;2022-11-18T07:08:50;8.70;99.90
15930;DHT22;8064;51.142;4.780;2022-11-18T07:11:18;8.70;99.90
15930;DHT22;8064;51.142;4.780;2022-11-18T07:13:44;8.70;99.90
15930;DHT22;8064;51.142;4.780;2022-11-18T07:18:38;8.70;99.90
15930;DHT22;8064;51.142;4.780;2022-11-18T07:21:26;8.70;99.90
15930;DHT22;8064;51.142;4.780;2022-11-18T07:23:52;8.70;99.90
15930;DHT22;8064;51.142;4.780;2022-11-18T07:26:18;8.70;99.90
15930;DHT22;8064;51.142;4.780;2022-11-18T07:28:44;8.70;99.90
15930;DHT22;8064;51.142;4.780;2022-11-18T07:31:15;8.80;99.90
15930;DHT22;8064;51.142;4.780;2022-11-18T07:33:42;8.80;99.90
15930;DHT22;8064;51.142;4.780;2022-11-18T07:36:10;8.80;99.90
15930;DHT22;8064;51.142;4.780;2022-11-18T07:38:36;8.80;99.90
15930;DHT22;8064;51.142;4.780;2022-11-18T07:41:04;8.90;99.90
15930;DHT22;8064;51.142;4.780;2022-11-18T07:43:32;8.90;99.90
15930;DHT22;8064;51.142;4.780;2022-11-18T07:45:57;9.00;99.90
15930;DHT22;8064;51.142;4.780;2022-11-18T07:48:23;9.00;99.90
15930;DHT22;8064;51.142;4.780;2022-11-18T07:50:49;9.10;99.90
15930;DHT22;8064;51.142;4.780;2022-11-18T07:53:14;9.10;99.90
15930;DHT22;8064;51.142;4.780;2022-11-18T07:55:40;9.20;99.90
15930;DHT22;8064;51.142;4.780;2022-11-18T07:58:06;9.20;99.90
15930;DHT22;8064;51.142;4.780;2022-11-18T08:00:31;9.30;99.90
15930;DHT22;8064;51.142;4.780;2022-11-18T08:02:57;9.30;99.90
15930;DHT22;8064;51.142;4.780;2022-11-18T08:05:23;9.40;99.90
15930;DHT22;8064;51.142;4.780;2022-11-18T08:07:49;9.50;99.90
15930;DHT22;8064;51.142;4.780;2022-11-18T08:10:15;9.60;99.90
15930;DHT22;8064;51.142;4.780;2022-11-18T08:12:40;9.70;99.90
15930;DHT22;8064;51.142;4.780;2022-11-18T08:15:06;9.70;99.90
15930;DHT22;8064;51.142;4.780;2022-11-18T08:17:32;9.80;99.90
15930;DHT22;8064;51.142;4.780;2022-11-18T08:19:58;9.80;99.90
15930;DHT22;8064;51.142;4.780;2022-11-18T08:22:24;9.80;99.90
15930;DHT22;8064;51.142;4.780;2022-11-18T08:24:50;9.90;99.90
15930;DHT22;8064;51.142;4.780;2022-11-18T08:27:15;9.90;99.90
15930;DHT22;8064;51.142;4.780;2022-11-18T08:29:41;9.90;99.90
15930;DHT22;8064;51.142;4.780;2022-11-18T08:32:07;10.00;99.90
15930;DHT22;8064;51.142;4.780;2022-11-18T08:34:33;10.00;99.90
15930;DHT22;8064;51.142;4.780;2022-11-18T08:36:59;10.00;99.90
15930;DHT22;8064;51.142;4.780;2022-11-18T08:39:25;10.00;99.90
15930;DHT22;8064;51.142;4.780;2022-11-18T08:41:51;10.00;99.90
15930;DHT22;8064;51.142;4.780;2022-11-18T08:44:16;9.90;99.90
15930;DHT22;8064;51.142;4.780;2022-11-18T08:46:43;9.90;99.90
15930;DHT22;8064;51.142;4.780;2022-11-18T08:49:11;9.90;99.90
15930;DHT22;8064;51.142;4.780;2022-11-18T08:51:37;10.00;99.90
15930;DHT22;8064;51.142;4.780;2022-11-18T08:54:03;10.00;99.90
15930;DHT22;8064;51.142;4.780;2022-11-18T08:56:29;10.00;99.90
15930;DHT22;8064;51.142;4.780;2022-11-18T08:58:55;10.00;99.90
15930;DHT22;8064;51.142;4.780;2022-11-18T09:01:21;10.10;99.90
15930;DHT22;8064;51.142;4.780;2022-11-18T09:03:47;10.10;99.90
15930;DHT22;8064;51.142;4.780;2022-11-18T09:06:19;10.10;99.90
15930;DHT22;8064;51.142;4.780;2022-11-18T09:08:45;10.20;99.90
15930;DHT22;8064;51.142;4.780;2022-11-18T09:11:17;10.10;99.90
15930;DHT22;8064;51.142;4.780;2022-11-18T09:13:43;10.20;99.90
15930;DHT22;8064;51.142;4.780;2022-11-18T09:16:09;10.20;99.90
15930;DHT22;8064;51.142;4.780;2022-11-18T09:18:35;10.20;99.90
15930;DHT22;8064;51.142;4.780;2022-11-18T09:21:04;10.30;99.90
15930;DHT22;8064;51.142;4.780;2022-11-18T09:23:32;10.30;99.90
15930;DHT22;8064;51.142;4.780;2022-11-18T09:26:00;10.30;99.90
15930;DHT22;8064;51.142;4.780;2022-11-18T09:28:26;10.40;99.90
15930;DHT22;8064;51.142;4.780;2022-11-18T09:30:52;10.40;99.90
15930;DHT22;8064;51.142;4.780;2022-11-18T09:33:18;10.50;99.90
15930;DHT22;8064;51.142;4.780;2022-11-18T09:35:43;10.50;99.90
15930;DHT22;8064;51.142;4.780;2022-11-18T09:38:09;10.60;99.90
15930;DHT22;8064;51.142;4.780;2022-11-18T09:43:46;10.70;99.90
15930;DHT22;8064;51.142;4.780;2022-11-18T09:49:14;10.80;99.90
15930;DHT22;8064;51.142;4.780;2022-11-18T09:51:42;10.90;99.90
15930;DHT22;8064;51.142;4.780;2022-11-18T09:54:10;11.00;99.90
15930;DHT22;8064;51.142;4.780;2022-11-18T09:56:39;11.20;99.90
15930;DHT22;8064;51.142;4.780;2022-11-18T09:59:05;11.40;99.90
15930;DHT22;8064;51.142;4.780;2022-11-18T10:01:31;11.70;99.90
15930;DHT22;8064;51.142;4.780;2022-11-18T10:03:57;12.10;99.90
15930;DHT22;8064;51.142;4.780;2022-11-18T10:06:25;12.40;99.90
15930;DHT22;8064;51.142;4.780;2022-11-18T10:11:39;13.30;99.90
15930;DHT22;8064;51.142;4.780;2022-11-18T10:14:32;13.80;99.90
15930;DHT22;8064;51.142;4.780;2022-11-18T10:19:51;13.90;99.90
15930;DHT22;8064;51.142;4.780;2022-11-18T10:25:10;13.80;99.90
15930;DHT22;8064;51.142;4.780;2022-11-18T10:27:40;13.80;99.90
15930;DHT22;8064;51.142;4.780;2022-11-18T10:30:12;13.80;99.90
15930;DHT22;8064;51.142;4.780;2022-11-18T10:35:29;13.80;99.90
15930;DHT22;8064;51.142;4.780;2022-11-18T10:38:24;13.80;99.90
15930;DHT22;8064;51.142;4.780;2022-11-18T10:41:02;13.80;99.90
15930;DHT22;8064;51.142;4.780;2022-11-18T10:43:46;13.90;99.90
15930;DHT22;8064;51.142;4.780;2022-11-18T10:57:03;15.10;99.90
15930;DHT22;8064;51.142;4.780;2022-11-18T10:59:34;15.20;99.90
15930;DHT22;8064;51.142;4.780;2022-11-18T11:04:40;14.60;99.90
15930;DHT22;8064;51.142;4.780;2022-11-18T11:10:18;14.10;99.90
15930;DHT22;8064;51.142;4.780;2022-11-18T11:12:51;13.80;99.90
15930;DHT22;8064;51.142;4.780;2022-11-18T11:15:37;13.50;99.90
15930;DHT22;8064;51.142;4.780;2022-11-18T11:18:28;13.30;99.90
15930;DHT22;8064;51.142;4.780;2022-11-18T11:21:11;13.20;99.90
15930;DHT22;8064;51.142;4.780;2022-11-18T11:23:37;13.10;99.90
15930;DHT22;8064;51.142;4.780;2022-11-18T11:26:11;13.00;99.90
15930;DHT22;8064;51.142;4.780;2022-11-18T11:28:47;12.90;99.90
15930;DHT22;8064;51.142;4.780;2022-11-18T11:34:24;12.80;99.90
15930;DHT22;8064;51.142;4.780;2022-11-18T11:36:58;12.70;99.90
15930;DHT22;8064;51.142;4.780;2022-11-18T11:45:30;12.70;99.90
15930;DHT22;8064;51.142;4.780;2022-11-18T11:59:06;12.50;99.90
15930;DHT22;8064;51.142;4.780;2022-11-18T12:01:57;12.50;99.90
15930;DHT22;8064;51.142;4.780;2022-11-18T12:08:02;12.50;99.90
15930;DHT22;8064;51.142;4.780;2022-11-18T12:10:36;12.40;99.90
15930;DHT22;8064;51.142;4.780;2022-11-18T12:19:00;12.40;99.90
15930;DHT22;8064;51.142;4.780;2022-11-18T12:26:48;12.30;99.90
15930;DHT22;8064;51.142;4.780;2022-11-18T12:36:52;12.20;99.90
15930;DHT22;8064;51.142;4.780;2022-11-18T12:44:42;12.00;99.90
15930;DHT22;8064;51.142;4.780;2022-11-18T12:47:11;12.00;99.90
15930;DHT22;8064;51.142;4.780;2022-11-18T12:54:57;11.90;99.90
15930;DHT22;8064;51.142;4.780;2022-11-18T12:57:31;11.80;99.90
15930;DHT22;8064;51.142;4.780;2022-11-18T12:59:58;11.90;99.90
15930;DHT22;8064;51.142;4.780;2022-11-18T13:02:25;11.80;99.90
15930;DHT22;8064;51.142;4.780;2022-11-18T13:05:18;11.80;99.90
15930;DHT22;8064;51.142;4.780;2022-11-18T13:07:46;11.80;99.90
15930;DHT22;8064;51.142;4.780;2022-11-18T13:10:34;11.80;99.90
15930;DHT22;8064;51.142;4.780;2022-11-18T13:13:02;11.80;99.90
15930;DHT22;8064;51.142;4.780;2022-11-18T13:15:28;11.80;99.90
15930;DHT22;8064;51.142;4.780;2022-11-18T13:18:13;11.70;99.90
15930;DHT22;8064;51.142;4.780;2022-11-18T13:20:41;11.70;99.90
15930;DHT22;8064;51.142;4.780;2022-11-18T13:26:14;11.70;99.90
15930;DHT22;8064;51.142;4.780;2022-11-18T13:32:10;11.60;99.90
15930;DHT22;8064;51.142;4.780;2022-11-18T13:34:48;11.60;99.90
15930;DHT22;8064;51.142;4.780;2022-11-18T13:37:18;11.60;99.90
15930;DHT22;8064;51.142;4.780;2022-11-18T13:39:45;11.60;99.90
15930;DHT22;8064;51.142;4.780;2022-11-18T13:42:21;11.60;99.90
15930;DHT22;8064;51.142;4.780;2022-11-18T13:45:02;11.60;99.90
15930;DHT22;8064;51.142;4.780;2022-11-18T13:55:44;11.60;99.90
15930;DHT22;8064;51.142;4.780;2022-11-18T14:00:55;11.60;99.90
15930;DHT22;8064;51.142;4.780;2022-11-18T14:04:03;11.50;99.90
15930;DHT22;8064;51.142;4.780;2022-11-18T14:06:38;11.60;99.90
15930;DHT22;8064;51.142;4.780;2022-11-18T14:09:06;11.50;99.90
15930;DHT22;8064;51.142;4.780;2022-11-18T14:11:39;11.50;99.90
15930;DHT22;8064;51.142;4.780;2022-11-18T14:14:05;11.50;99.90
15930;DHT22;8064;51.142;4.780;2022-11-18T14:16:36;11.50;99.90
15930;DHT22;8064;51.142;4.780;2022-11-18T14:19:03;11.50;99.90
15930;DHT22;8064;51.142;4.780;2022-11-18T14:21:36;11.40;99.90
15930;DHT22;8064;51.142;4.780;2022-11-18T14:24:05;11.40;99.90
15930;DHT22;8064;51.142;4.780;2022-11-18T14:26:33;11.50;99.90
15930;DHT22;8064;51.142;4.780;2022-11-18T14:29:13;11.40;99.90
15930;DHT22;8064;51.142;4.780;2022-11-18T14:32:01;11.40;99.90
15930;DHT22;8064;51.142;4.780;2022-11-18T14:34:27;11.50;99.90
15930;DHT22;8064;51.142;4.780;2022-11-18T14:36:55;11.50;99.90
15930;DHT22;8064;51.142;4.780;2022-11-18T14:39:31;11.50;99.90
15930;DHT22;8064;51.142;4.780;2022-11-18T14:41:59;11.50;99.90
15930;DHT22;8064;51.142;4.780;2022-11-18T14:44:50;11.50;99.90
15930;DHT22;8064;51.142;4.780;2022-11-18T14:47:37;11.50;99.90
15930;DHT22;8064;51.142;4.780;2022-11-18T14:50:25;11.50;99.90
15930;DHT22;8064;51.142;4.780;2022-11-18T14:52:53;11.50;99.90
15930;DHT22;8064;51.142;4.780;2022-11-18T14:55:24;11.50;99.90
15930;DHT22;8064;51.142;4.780;2022-11-18T14:57:53;11.50;99.90
15930;DHT22;8064;51.142;4.780;2022-11-18T15:00:22;11.50;99.90
15930;DHT22;8064;51.142;4.780;2022-11-18T15:03:09;11.50;99.90
15930;DHT22;8064;51.142;4.780;2022-11-18T15:05:38;11.50;99.90
15930;DHT22;8064;51.142;4.780;2022-11-18T15:08:27;11.60;99.90
15930;DHT22;8064;51.142;4.780;2022-11-18T15:10:58;11.60;99.90
15930;DHT22;8064;51.142;4.780;2022-11-18T15:13:25;11.60;99.90
15930;DHT22;8064;51.142;4.780;2022-11-18T15:15:53;11.50;99.90
15930;DHT22;8064;51.142;4.780;2022-11-18T15:18:21;11.50;99.90
15930;DHT22;8064;51.142;4.780;2022-11-18T15:20:51;11.50;99.90
15930;DHT22;8064;51.142;4.780;2022-11-18T15:23:18;11.50;99.90
15930;DHT22;8064;51.142;4.780;2022-11-18T15:25:45;11.50;99.90
15930;DHT22;8064;51.142;4.780;2022-11-18T15:28:12;11.50;99.90
15930;DHT22;8064;51.142;4.780;2022-11-18T15:30:41;11.50;99.90
15930;DHT22;8064;51.142;4.780;2022-11-18T15:33:08;11.50;99.90
15930;DHT22;8064;51.142;4.780;2022-11-18T15:35:58;11.50;99.90
15930;DHT22;8064;51.142;4.780;2022-11-18T15:38:25;11.50;99.90
15930;DHT22;8064;51.142;4.780;2022-11-18T15:40:52;11.50;99.90
15930;DHT22;8064;51.142;4.780;2022-11-18T15:43:18;11.50;99.90
15930;DHT22;8064;51.142;4.780;2022-11-18T15:45:43;11.40;99.90
15930;DHT22;8064;51.142;4.780;2022-11-18T15:48:09;11.50;99.90
15930;DHT22;8064;51.142;4.780;2022-11-18T15:50:35;11.50;99.90
15930;DHT22;8064;51.142;4.780;2022-11-18T15:53:02;11.40;99.90
15930;DHT22;8064;51.142;4.780;2022-11-18T15:55:28;11.50;99.90
15930;DHT22;8064;51.142;4.780;2022-11-18T15:57:54;11.50;99.90
15930;DHT22;8064;51.142;4.780;2022-11-18T16:00:20;11.40;99.90
15930;DHT22;8064;51.142;4.780;2022-11-18T16:02:45;11.40;99.90
15930;DHT22;8064;51.142;4.780;2022-11-18T16:05:11;11.40;99.90
15930;DHT22;8064;51.142;4.780;2022-11-18T16:07:37;11.40;99.90
15930;DHT22;8064;51.142;4.780;2022-11-18T16:10:03;11.40;99.90
15930;DHT22;8064;51.142;4.780;2022-11-18T16:12:47;11.40;99.90
15930;DHT22;8064;51.142;4.780;2022-11-18T16:15:14;11.40;99.90
15930;DHT22;8064;51.142;4.780;2022-11-18T16:17:59;11.40;99.90
15930;DHT22;8064;51.142;4.780;2022-11-18T16:20:25;11.30;99.90
15930;DHT22;8064;51.142;4.780;2022-11-18T16:22:51;11.30;99.90
15930;DHT22;8064;51.142;4.780;2022-11-18T16:25:19;11.30;99.90
15930;DHT22;8064;51.142;4.780;2022-11-18T16:27:45;11.30;99.90
15930;DHT22;8064;51.142;4.780;2022-11-18T16:30:12;11.30;99.90
15930;DHT22;8064;51.142;4.780;2022-11-18T16:32:58;11.20;99.90
15930;DHT22;8064;51.142;4.780;2022-11-18T16:35:24;11.20;99.90
15930;DHT22;8064;51.142;4.780;2022-11-18T16:37:51;11.20;99.90
15930;DHT22;8064;51.142;4.780;2022-11-18T16:40:17;11.20;99.90
15930;DHT22;8064;51.142;4.780;2022-11-18T16:42:42;11.20;99.90
15930;DHT22;8064;51.142;4.780;2022-11-18T16:45:09;11.20;99.90
15930;DHT22;8064;51.142;4.780;2022-11-18T16:47:35;11.20;99.90
15930;DHT22;8064;51.142;4.780;2022-11-18T16:50:03;11.20;99.90
15930;DHT22;8064;51.142;4.780;2022-11-18T16:52:29;11.10;99.90
15930;DHT22;8064;51.142;4.780;2022-11-18T16:54:54;11.10;99.90
15930;DHT22;8064;51.142;4.780;2022-11-18T16:57:20;11.10;99.90
15930;DHT22;8064;51.142;4.780;2022-11-18T16:59:47;11.10;99.90
15930;DHT22;8064;51.142;4.780;2022-11-18T17:02:13;11.10;99.90
15930;DHT22;8064;51.142;4.780;2022-11-18T17:04:39;11.10;99.90
15930;DHT22;8064;51.142;4.780;2022-11-18T17:07:05;11.10;99.90
15930;DHT22;8064;51.142;4.780;2022-11-18T17:09:31;11.10;99.90
15930;DHT22;8064;51.142;4.780;2022-11-18T17:11:57;11.10;99.90
15930;DHT22;8064;51.142;4.780;2022-11-18T17:14:23;11.20;99.90
15930;DHT22;8064;51.142;4.780;2022-11-18T17:16:50;11.20;99.90
15930;DHT22;8064;51.142;4.780;2022-11-18T17:19:19;11.10;99.90
15930;DHT22;8064;51.142;4.780;2022-11-18T17:21:46;11.20;99.90
15930;DHT22;8064;51.142;4.780;2022-11-18T17:24:13;11.20;99.90
15930;DHT22;8064;51.142;4.780;2022-11-18T17:26:39;11.20;99.90
15930;DHT22;8064;51.142;4.780;2022-11-18T17:29:06;11.10;99.90
15930;DHT22;8064;51.142;4.780;2022-11-18T17:31:32;11.10;99.90
15930;DHT22;8064;51.142;4.780;2022-11-18T17:33:58;11.10;99.90
15930;DHT22;8064;51.142;4.780;2022-11-18T17:36:26;11.10;99.90
15930;DHT22;8064;51.142;4.780;2022-11-18T17:38:54;11.10;99.90
15930;DHT22;8064;51.142;4.780;2022-11-18T17:41:22;11.10;99.90
15930;DHT22;8064;51.142;4.780;2022-11-18T17:44:08;11.10;99.90
15930;DHT22;8064;51.142;4.780;2022-11-18T17:46:35;11.10;99.90
15930;DHT22;8064;51.142;4.780;2022-11-18T17:49:02;11.10;99.90
15930;DHT22;8064;51.142;4.780;2022-11-18T17:51:30;11.10;99.90
15930;DHT22;8064;51.142;4.780;2022-11-18T17:53:56;11.10;99.90
15930;DHT22;8064;51.142;4.780;2022-11-18T17:56:22;11.10;99.90
15930;DHT22;8064;51.142;4.780;2022-11-18T17:58:49;11.10;99.90
15930;DHT22;8064;51.142;4.780;2022-11-18T18:01:17;11.10;99.90
15930;DHT22;8064;51.142;4.780;2022-11-18T18:03:43;11.10;99.90
15930;DHT22;8064;51.142;4.780;2022-11-18T18:06:10;11.00;99.90
15930;DHT22;8064;51.142;4.780;2022-11-18T18:08:36;11.00;99.90
15930;DHT22;8064;51.142;4.780;2022-11-18T18:11:04;11.10;99.90
15930;DHT22;8064;51.142;4.780;2022-11-18T18:13:30;11.10;99.90
15930;DHT22;8064;51.142;4.780;2022-11-18T18:16:14;11.00;99.90